Time;durP1;ratioP1;P1;durP2;ratioP2;P2;SDS_P1;SDS_P2;PMS_P1;PMS_P2;Temp;Humidity;BMP_temperature;BMP_pressure;BME280_temperature;BME280_humidity;BME280_pressure;Samples;Min_cycle;Max_cycle;Signal;HPM_P1;HPM_P2
2023/04/20 00:02:02;;;;;;;;;;;;;;;;;;4364642;32;19998;-81
2023/04/20 00:04:27;;;;;;;;;;;;;;;;;;4364176;32;19938;-81
2023/04/20 00:06:52;;;;;;;;;;;;;;;;;;4364312;33;19972;-81
2023/04/20 00:09:18;;;;;;;;;;;;;;;;;;4364889;32;19938;-81
2023/04/20 00:11:43;;;;;;;;;;;;;;;;;;4363546;32;19942;-81
2023/04/20 00:14:08;;;;;;;;;;;;;;;;;;4349439;33;19973;-82
2023/04/20 00:16:33;;;;;;;;;;;;;;;;;;4363152;32;19945;-80
2023/04/20 00:18:58;;;;;;;;;;;;;;;;;;4364593;32;20257;-81
2023/04/20 00:21:23;;;;;;;;;;;;;;;;;;4350230;33;20362;-81
2023/04/20 00:23:48;;;;;;;;;;;;;;;;;;4365211;32;19943;-82
2023/04/20 00:26:13;;;;;;;;;;;;;;;;;;4374879;32;19961;-81
2023/04/20 00:28:38;;;;;;;;;;;;;;;;;;4377360;33;20028;-81
2023/04/20 00:31:03;;;;;;;;;;;;;;;;;;4373961;32;19938;-82
2023/04/20 00:33:28;;;;;;;;;;;;;;;;;;4352385;33;19980;-81
2023/04/20 00:35:55;;;;;;;;;;;;;;;;;;4364479;32;19942;-81
2023/04/20 00:38:20;;;;;;;;;;;;;;;;;;4350104;33;19935;-81
2023/04/20 00:40:51;;;;;;;;;;;;;;;;;;4349750;33;19969;-81
2023/04/20 00:43:16;;;;;;;;;;;;;;;;;;4349702;33;19931;-80
2023/04/20 00:45:42;;;;;;;;;;;;;;;;;;4363313;32;19934;-81
2023/04/20 00:48:07;;;;;;;;;;;;;;;;;;4350895;33;19998;-80
2023/04/20 00:50:32;;;;;;;;;;;;;;;;;;4365669;32;19935;-82
2023/04/20 00:52:57;;;;;;;;;;;;;;;;;;4368976;32;19942;-81
2023/04/20 00:55:22;;;;;;;;;;;;;;;;;;4367665;32;19957;-82
2023/04/20 00:57:47;;;;;;;;;;;;;;;;;;4350920;33;19966;-80
2023/04/20 01:00:12;;;;;;;;;;;;;;;;;;4349521;33;19965;-81
2023/04/20 01:02:37;;;;;;;;;;;;;;;;;;4350074;33;19972;-81
2023/04/20 01:05:02;;;;;;;;;;;;;;;;;;4363719;32;19938;-81
2023/04/20 01:07:28;;;;;;;;;;;;;;;;;;4364837;32;19982;-81
2023/04/20 01:09:54;;;;;;;;;;;;;;;;;;4368191;32;19989;-80
2023/04/20 01:12:19;;;;;;;;;;;;;;;;;;4366650;32;19946;-81
2023/04/20 01:14:44;;;;;;;;;;;;;;;;;;4364255;32;20307;-81
2023/04/20 01:17:09;;;;;;;;;;;;;;;;;;4363469;33;19999;-81
2023/04/20 01:19:34;;;;;;;;;;;;;;;;;;4362434;32;19993;-81
2023/04/20 01:21:59;;;;;;;;;;;;;;;;;;4362162;32;19939;-82
2023/04/20 01:24:24;;;;;;;;;;;;;;;;;;4367119;32;20288;-81
2023/04/20 01:26:49;;;;;;;;;;;;;;;;;;4375833;32;19970;-81
2023/04/20 01:29:15;;;;;;;;;;;;;;;;;;4377444;32;19953;-80
2023/04/20 01:31:40;;;;;;;;;;;;;;;;;;4357997;33;19954;-81
2023/04/20 01:34:05;;;;;;;;;;;;;;;;;;4367261;32;19971;-81
2023/04/20 01:36:31;;;;;;;;;;;;;;;;;;4349922;33;19942;-82
2023/04/20 01:38:56;;;;;;;;;;;;;;;;;;4349850;33;20255;-80
2023/04/20 01:41:21;;;;;;;;;;;;;;;;;;4349060;33;19934;-81
2023/04/20 01:43:46;;;;;;;;;;;;;;;;;;4363170;32;19986;-82
2023/04/20 01:46:11;;;;;;;;;;;;;;;;;;4365200;33;19946;-81
2023/04/20 01:48:36;;;;;;;;;;;;;;;;;;4373747;32;19935;-81
2023/04/20 01:51:01;;;;;;;;;;;;;;;;;;4365173;32;20049;-82
2023/04/20 01:53:27;;;;;;;;;;;;;;;;;;4377718;32;19927;-82
2023/04/20 01:55:52;;;;;;;;;;;;;;;;;;4369725;32;19994;-81
2023/04/20 01:58:17;;;;;;;;;;;;;;;;;;4350541;33;19938;-81
2023/04/20 02:00:42;;;;;;;;;;;;;;;;;;4365011;32;19946;-81
2023/04/20 02:03:07;;;;;;;;;;;;;;;;;;4350407;33;19938;-82
2023/04/20 02:05:33;;;;;;;;;;;;;;;;;;4351284;33;20307;-81
2023/04/20 02:07:58;;;;;;;;;;;;;;;;;;4349955;33;19938;-81
2023/04/20 02:10:23;;;;;;;;;;;;;;;;;;4349074;33;19938;-81
2023/04/20 02:12:48;;;;;;;;;;;;;;;;;;4365069;32;19939;-81
2023/04/20 02:15:13;;;;;;;;;;;;;;;;;;4364938;33;20005;-82
2023/04/20 02:17:39;;;;;;;;;;;;;;;;;;4349922;33;19958;-82
2023/04/20 02:20:08;;;;;;;;;;;;;;;;;;4364170;32;19981;-82
2023/04/20 02:22:33;;;;;;;;;;;;;;;;;;4363409;32;19953;-81
2023/04/20 02:24:59;;;;;;;;;;;;;;;;;;4363809;33;20032;-82
2023/04/20 02:27:24;;;;;;;;;;;;;;;;;;4364332;32;19930;-82
2023/04/20 02:29:49;;;;;;;;;;;;;;;;;;4362676;32;19978;-82
2023/04/20 02:32:14;;;;;;;;;;;;;;;;;;4348747;33;19938;-83
2023/04/20 02:34:39;;;;;;;;;;;;;;;;;;4348366;33;20037;-82
2023/04/20 02:37:04;;;;;;;;;;;;;;;;;;4362270;32;19938;-81
2023/04/20 02:39:31;;;;;;;;;;;;;;;;;;4362625;32;19938;-82
2023/04/20 02:41:56;;;;;;;;;;;;;;;;;;4349298;33;20002;-82
2023/04/20 02:44:21;;;;;;;;;;;;;;;;;;4362310;32;19943;-81
2023/04/20 02:46:46;;;;;;;;;;;;;;;;;;4362552;32;19978;-81
2023/04/20 02:49:11;;;;;;;;;;;;;;;;;;4348423;33;19943;-83
2023/04/20 02:51:37;;;;;;;;;;;;;;;;;;4361895;33;19973;-82
2023/04/20 02:54:02;;;;;;;;;;;;;;;;;;4362527;32;19946;-82
2023/04/20 02:56:27;;;;;;;;;;;;;;;;;;4347941;33;19931;-82
2023/04/20 02:58:52;;;;;;;;;;;;;;;;;;4347533;33;19934;-81
2023/04/20 03:01:18;;;;;;;;;;;;;;;;;;4362089;32;19950;-82
2023/04/20 03:03:43;;;;;;;;;;;;;;;;;;4361805;32;19957;-81
2023/04/20 03:06:08;;;;;;;;;;;;;;;;;;4347176;33;19938;-83
2023/04/20 03:08:33;;;;;;;;;;;;;;;;;;4361251;33;20272;-82
2023/04/20 03:10:58;;;;;;;;;;;;;;;;;;4361641;33;20296;-82
2023/04/20 03:13:23;;;;;;;;;;;;;;;;;;4361962;33;19939;-82
2023/04/20 03:15:48;;;;;;;;;;;;;;;;;;4361372;33;19986;-82
2023/04/20 03:18:13;;;;;;;;;;;;;;;;;;4365991;32;19934;-83
2023/04/20 03:20:39;;;;;;;;;;;;;;;;;;4353117;33;19949;-83
2023/04/20 03:23:04;;;;;;;;;;;;;;;;;;4351401;33;20334;-83
2023/04/20 03:25:29;;;;;;;;;;;;;;;;;;4364872;32;19943;-81
2023/04/20 03:27:54;;;;;;;;;;;;;;;;;;4352291;33;19953;-80
2023/04/20 03:30:19;;;;;;;;;;;;;;;;;;4366125;32;19977;-81
2023/04/20 03:32:45;;;;;;;;;;;;;;;;;;4354141;32;19952;-81
2023/04/20 03:35:10;;;;;;;;;;;;;;;;;;4352472;33;19947;-80
2023/04/20 03:37:35;;;;;;;;;;;;;;;;;;4370984;32;19977;-82
2023/04/20 03:40:00;;;;;;;;;;;;;;;;;;4376446;32;19950;-80
2023/04/20 03:42:25;;;;;;;;;;;;;;;;;;4378559;32;19934;-81
2023/04/20 03:44:50;;;;;;;;;;;;;;;;;;4378515;32;19962;-80
2023/04/20 03:47:15;;;;;;;;;;;;;;;;;;4376064;32;19934;-80
2023/04/20 03:49:40;;;;;;;;;;;;;;;;;;4368218;32;19947;-81
2023/04/20 03:52:06;;;;;;;;;;;;;;;;;;4359217;33;19990;-81
2023/04/20 03:54:31;;;;;;;;;;;;;;;;;;4368658;32;20315;-81
2023/04/20 03:56:57;;;;;;;;;;;;;;;;;;4371679;32;19934;-80
2023/04/20 03:59:22;;;;;;;;;;;;;;;;;;4377314;32;20025;-81
2023/04/20 04:01:47;;;;;;;;;;;;;;;;;;4367428;32;19943;-82
2023/04/20 04:04:12;;;;;;;;;;;;;;;;;;4366073;32;19938;-83
2023/04/20 04:06:37;;;;;;;;;;;;;;;;;;4361657;33;19950;-82
2023/04/20 04:09:02;;;;;;;;;;;;;;;;;;4350269;33;19970;-81
2023/04/20 04:11:28;;;;;;;;;;;;;;;;;;4361213;32;19942;-80
2023/04/20 04:13:54;;;;;;;;;;;;;;;;;;4360994;32;20342;-81
2023/04/20 04:16:19;;;;;;;;;;;;;;;;;;4361835;33;20332;-82
2023/04/20 04:18:44;;;;;;;;;;;;;;;;;;4350566;32;20312;-82
2023/04/20 04:21:09;;;;;;;;;;;;;;;;;;4350579;32;20410;-81
2023/04/20 04:23:36;;;;;;;;;;;;;;;;;;4361846;32;19941;-80
2023/04/20 04:26:01;;;;;;;;;;;;;;;;;;4349328;32;19957;-79
2023/04/20 04:28:27;;;;;;;;;;;;;;;;;;4360886;33;19946;-81
2023/04/20 04:30:53;;;;;;;;;;;;;;;;;;4360070;32;19973;-82
2023/04/20 04:33:19;;;;;;;;;;;;;;;;;;4348608;32;19934;-81
2023/04/20 04:35:44;;;;;;;;;;;;;;;;;;4360050;32;19931;-81
2023/04/20 04:38:09;;;;;;;;;;;;;;;;;;4348750;32;20398;-81
2023/04/20 04:40:34;;;;;;;;;;;;;;;;;;4348416;32;19990;-82
2023/04/20 04:42:59;;;;;;;;;;;;;;;;;;4360000;32;19957;-81
2023/04/20 04:45:25;;;;;;;;;;;;;;;;;;4352171;32;19934;-80
2023/04/20 04:47:52;;;;;;;;;;;;;;;;;;4362805;32;19990;-81
2023/04/20 04:50:17;;;;;;;;;;;;;;;;;;4348849;32;19939;-81
2023/04/20 04:52:42;;;;;;;;;;;;;;;;;;4348852;32;19943;-81
2023/04/20 04:55:08;;;;;;;;;;;;;;;;;;4347958;33;19986;-82
2023/04/20 04:57:33;;;;;;;;;;;;;;;;;;4346485;33;20267;-82
2023/04/20 04:59:58;;;;;;;;;;;;;;;;;;4347867;33;20342;-82
2023/04/20 05:02:24;;;;;;;;;;;;;;;;;;4348780;33;19950;-82
2023/04/20 05:04:49;;;;;;;;;;;;;;;;;;4349322;33;20251;-81
2023/04/20 05:07:14;;;;;;;;;;;;;;;;;;4348520;33;19990;-81
2023/04/20 05:09:39;;;;;;;;;;;;;;;;;;4347570;33;20394;-81
2023/04/20 05:12:04;;;;;;;;;;;;;;;;;;4349908;33;19939;-81
2023/04/20 05:14:30;;;;;;;;;;;;;;;;;;4347755;33;20364;-81
2023/04/20 05:16:55;;;;;;;;;;;;;;;;;;4354259;33;19943;-81
2023/04/20 05:19:20;;;;;;;;;;;;;;;;;;4354990;33;20019;-80
2023/04/20 05:21:45;;;;;;;;;;;;;;;;;;4350081;33;19953;-82
2023/04/20 05:24:10;;;;;;;;;;;;;;;;;;4349859;33;19935;-81
2023/04/20 05:26:35;;;;;;;;;;;;;;;;;;4347579;33;19973;-80
2023/04/20 05:29:00;;;;;;;;;;;;;;;;;;4346484;33;19939;-80
2023/04/20 05:31:26;;;;;;;;;;;;;;;;;;4350602;33;19939;-78
2023/04/20 05:33:51;;;;;;;;;;;;;;;;;;4352975;33;20276;-80
2023/04/20 05:36:16;;;;;;;;;;;;;;;;;;4354128;33;19943;-80
2023/04/20 05:38:41;;;;;;;;;;;;;;;;;;4347421;33;19954;-78
2023/04/20 05:41:06;;;;;;;;;;;;;;;;;;4345800;33;19939;-79
2023/04/20 05:43:31;;;;;;;;;;;;;;;;;;4345765;33;19939;-79
2023/04/20 05:45:57;;;;;;;;;;;;;;;;;;4345879;33;20299;-80
2023/04/20 05:48:22;;;;;;;;;;;;;;;;;;4346380;33;20276;-79
2023/04/20 05:50:47;;;;;;;;;;;;;;;;;;4347395;33;19934;-79
2023/04/20 05:53:12;;;;;;;;;;;;;;;;;;4346772;33;20350;-79
2023/04/20 05:55:37;;;;;;;;;;;;;;;;;;4347004;33;19943;-78
2023/04/20 05:58:02;;;;;;;;;;;;;;;;;;4345625;33;19934;-78
2023/04/20 06:00:27;;;;;;;;;;;;;;;;;;4347384;33;19975;-79
2023/04/20 06:02:53;;;;;;;;;;;;;;;;;;4351297;33;19935;-78
2023/04/20 06:05:19;;;;;;;;;;;;;;;;;;4356443;33;19958;-80
2023/04/20 06:07:44;;;;;;;;;;;;;;;;;;4349022;33;19931;-78
2023/04/20 06:10:09;;;;;;;;;;;;;;;;;;4348021;33;20006;-79
2023/04/20 06:12:35;;;;;;;;;;;;;;;;;;4348139;33;19939;-79
2023/04/20 06:15:00;;;;;;;;;;;;;;;;;;4346361;33;19990;-80
2023/04/20 06:17:25;;;;;;;;;;;;;;;;;;4347702;33;19946;-80
2023/04/20 06:19:50;;;;;;;;;;;;;;;;;;4347395;33;19938;-80
2023/04/20 06:22:15;;;;;;;;;;;;;;;;;;4349680;33;19974;-80
2023/04/20 06:24:41;;;;;;;;;;;;;;;;;;4346430;33;19950;-79
2023/04/20 06:27:06;;;;;;;;;;;;;;;;;;4352574;33;19935;-81
2023/04/20 06:29:31;;;;;;;;;;;;;;;;;;4351659;33;20364;-78
2023/04/20 06:31:56;;;;;;;;;;;;;;;;;;4354218;33;19950;-81
2023/04/20 06:34:21;;;;;;;;;;;;;;;;;;4355881;33;19943;-79
2023/04/20 06:36:46;;;;;;;;;;;;;;;;;;4348678;33;19949;-80
2023/04/20 06:39:11;;;;;;;;;;;;;;;;;;4347884;33;19952;-79
2023/04/20 06:41:37;;;;;;;;;;;;;;;;;;4347626;33;19935;-81
2023/04/20 06:44:02;;;;;;;;;;;;;;;;;;4345331;33;19935;-78
2023/04/20 06:46:27;;;;;;;;;;;;;;;;;;4347130;33;19942;-80
2023/04/20 06:48:52;;;;;;;;;;;;;;;;;;4345505;33;20300;-80
2023/04/20 06:51:18;;;;;;;;;;;;;;;;;;4346818;33;20329;-80
2023/04/20 06:53:43;;;;;;;;;;;;;;;;;;4346095;33;19947;-80
2023/04/20 06:56:08;;;;;;;;;;;;;;;;;;4347352;33;19986;-82
2023/04/20 06:58:33;;;;;;;;;;;;;;;;;;4345603;33;19942;-80
2023/04/20 07:00:58;;;;;;;;;;;;;;;;;;4346607;33;20371;-82
2023/04/20 07:03:23;;;;;;;;;;;;;;;;;;4345436;33;19974;-80
2023/04/20 07:05:48;;;;;;;;;;;;;;;;;;4347158;33;20338;-80
2023/04/20 07:08:17;;;;;;;;;;;;;;;;;;4347948;33;19943;-79
2023/04/20 07:10:42;;;;;;;;;;;;;;;;;;4349162;33;19938;-80
2023/04/20 07:13:07;;;;;;;;;;;;;;;;;;4347104;33;19977;-79
2023/04/20 07:15:32;;;;;;;;;;;;;;;;;;4348752;33;19943;-79
2023/04/20 07:17:57;;;;;;;;;;;;;;;;;;4349164;33;20353;-81
2023/04/20 07:20:22;;;;;;;;;;;;;;;;;;4349817;33;19939;-80
2023/04/20 07:22:47;;;;;;;;;;;;;;;;;;4349043;33;20264;-82
2023/04/20 07:25:13;;;;;;;;;;;;;;;;;;4346063;33;19947;-81
2023/04/20 07:27:38;;;;;;;;;;;;;;;;;;4347005;33;20354;-80
2023/04/20 07:30:05;;;;;;;;;;;;;;;;;;4345682;33;19986;-81
2023/04/20 07:32:30;;;;;;;;;;;;;;;;;;4346588;33;20006;-82
2023/04/20 07:34:55;;;;;;;;;;;;;;;;;;4345040;33;19998;-81
2023/04/20 07:37:20;;;;;;;;;;;;;;;;;;4346186;33;19935;-82
2023/04/20 07:39:45;;;;;;;;;;;;;;;;;;4346685;33;20275;-81
2023/04/20 07:42:10;;;;;;;;;;;;;;;;;;4347136;33;19939;-79
2023/04/20 07:44:35;;;;;;;;;;;;;;;;;;4353089;33;20206;-80
2023/04/20 07:47:00;;;;;;;;;;;;;;;;;;4345372;33;19998;-81
2023/04/20 07:49:26;;;;;;;;;;;;;;;;;;4346913;33;20195;-80
2023/04/20 07:51:51;;;;;;;;;;;;;;;;;;4347958;33;19935;-81
2023/04/20 07:54:16;;;;;;;;;;;;;;;;;;4348076;33;19951;-82
2023/04/20 07:56:41;;;;;;;;;;;;;;;;;;4346968;33;19931;-81
2023/04/20 07:59:06;;;;;;;;;;;;;;;;;;4344762;33;19949;-81
2023/04/20 08:01:31;;;;;;;;;;;;;;;;;;4347120;33;19955;-82
2023/04/20 08:03:56;;;;;;;;;;;;;;;;;;4346569;33;19973;-81
2023/04/20 08:06:21;;;;;;;;;;;;;;;;;;4351731;33;19939;-81
2023/04/20 08:08:46;;;;;;;;;;;;;;;;;;4357821;33;19947;-81
2023/04/20 08:11:12;;;;;;;;;;;;;;;;;;4354164;33;19943;-82
2023/04/20 08:13:37;;;;;;;;;;;;;;;;;;4348032;33;19962;-81
2023/04/20 08:16:02;;;;;;;;;;;;;;;;;;4352293;33;19931;-82
2023/04/20 08:18:29;;;;;;;;;;;;;;;;;;4349614;33;19959;-81
2023/04/20 08:20:54;;;;;;;;;;;;;;;;;;4355206;32;19930;-80
2023/04/20 08:23:19;;;;;;;;;;;;;;;;;;4357683;33;20004;-80
2023/04/20 08:25:44;;;;;;;;;;;;;;;;;;4359665;33;19938;-80
2023/04/20 08:28:10;;;;;;;;;;;;;;;;;;4355860;33;19935;-80
2023/04/20 08:30:35;;;;;;;;;;;;;;;;;;4351105;33;19963;-80
2023/04/20 08:33:00;;;;;;;;;;;;;;;;;;4349080;33;20288;-80
2023/04/20 08:35:25;;;;;;;;;;;;;;;;;;4348784;33;19939;-80
2023/04/20 08:37:50;;;;;;;;;;;;;;;;;;4349186;33;20323;-79
2023/04/20 08:40:15;;;;;;;;;;;;;;;;;;4347384;33;20354;-79
2023/04/20 08:42:40;;;;;;;;;;;;;;;;;;4346718;33;19973;-81
2023/04/20 08:45:06;;;;;;;;;;;;;;;;;;4347881;33;19977;-79
2023/04/20 08:47:31;;;;;;;;;;;;;;;;;;4347368;33;19951;-79
2023/04/20 08:49:57;;;;;;;;;;;;;;;;;;4348109;33;19938;-79
2023/04/20 08:52:22;;;;;;;;;;;;;;;;;;4353173;33;19949;-79
2023/04/20 08:54:47;;;;;;;;;;;;;;;;;;4348227;32;19947;-80
2023/04/20 08:57:12;;;;;;;;;;;;;;;;;;4348924;32;19945;-79
2023/04/20 08:59:37;;;;;;;;;;;;;;;;;;4348632;32;19985;-79
2023/04/20 09:02:02;;;;;;;;;;;;;;;;;;4360222;32;19943;-80
2023/04/20 09:04:27;;;;;;;;;;;;;;;;;;4359149;33;19939;-78
2023/04/20 09:06:53;;;;;;;;;;;;;;;;;;4358930;32;20312;-78
2023/04/20 09:09:18;;;;;;;;;;;;;;;;;;4359707;32;20038;-78
2023/04/20 09:11:43;;;;;;;;;;;;;;;;;;4358646;32;19971;-80
2023/04/20 09:14:09;;;;;;;;;;;;;;;;;;4358820;33;19942;-79
2023/04/20 09:16:34;;;;;;;;;;;;;;;;;;4358357;32;19973;-80
2023/04/20 09:18:59;;;;;;;;;;;;;;;;;;4348793;32;19939;-78
2023/04/20 09:21:24;;;;;;;;;;;;;;;;;;4352290;32;19945;-79
2023/04/20 09:23:50;;;;;;;;;;;;;;;;;;4361366;32;19981;-80
2023/04/20 09:26:15;;;;;;;;;;;;;;;;;;4360025;33;19950;-78
2023/04/20 09:28:41;;;;;;;;;;;;;;;;;;4362434;32;20324;-79
2023/04/20 09:31:06;;;;;;;;;;;;;;;;;;4351290;32;19943;-80
2023/04/20 09:33:32;;;;;;;;;;;;;;;;;;4361066;33;19934;-79
2023/04/20 09:35:57;;;;;;;;;;;;;;;;;;4349726;32;19938;-80
2023/04/20 09:38:23;;;;;;;;;;;;;;;;;;4361910;32;19966;-79
2023/04/20 09:40:48;;;;;;;;;;;;;;;;;;4348605;33;19957;-80
2023/04/20 09:43:13;;;;;;;;;;;;;;;;;;4347781;32;19935;-79
2023/04/20 09:45:38;;;;;;;;;;;;;;;;;;4347680;32;19976;-81
2023/04/20 09:48:04;;;;;;;;;;;;;;;;;;4359222;32;19945;-79
2023/04/20 09:50:29;;;;;;;;;;;;;;;;;;4359709;32;19970;-78
2023/04/20 09:52:54;;;;;;;;;;;;;;;;;;4360996;33;19957;-81
2023/04/20 09:55:20;;;;;;;;;;;;;;;;;;4346855;33;20329;-78
2023/04/20 09:57:45;;;;;;;;;;;;;;;;;;4346745;32;19939;-78
2023/04/20 10:00:11;;;;;;;;;;;;;;;;;;4347472;32;19943;-78
2023/04/20 10:02:36;;;;;;;;;;;;;;;;;;4346681;33;19935;-79
2023/04/20 10:05:02;;;;;;;;;;;;;;;;;;4348040;32;19981;-80
2023/04/20 10:07:27;;;;;;;;;;;;;;;;;;4346330;33;19938;-79
2023/04/20 10:09:52;;;;;;;;;;;;;;;;;;4346755;32;19947;-78
2023/04/20 10:12:19;;;;;;;;;;;;;;;;;;4347725;32;19934;-79
2023/04/20 10:14:44;;;;;;;;;;;;;;;;;;4350639;32;19953;-78
2023/04/20 10:17:10;;;;;;;;;;;;;;;;;;4361975;32;19986;-79
2023/04/20 10:19:35;;;;;;;;;;;;;;;;;;4348040;32;19943;-79
2023/04/20 10:22:00;;;;;;;;;;;;;;;;;;4347183;32;19994;-79
2023/04/20 10:24:26;;;;;;;;;;;;;;;;;;4358829;32;19943;-78
2023/04/20 10:26:52;;;;;;;;;;;;;;;;;;4350784;32;19957;-79
2023/04/20 10:29:17;;;;;;;;;;;;;;;;;;4360887;33;19962;-81
2023/04/20 10:31:42;;;;;;;;;;;;;;;;;;4348949;32;19935;-79
2023/04/20 10:34:07;;;;;;;;;;;;;;;;;;4358501;32;19977;-79
2023/04/20 10:36:33;;;;;;;;;;;;;;;;;;4347164;32;20070;-78
2023/04/20 10:38:59;;;;;;;;;;;;;;;;;;4346648;32;19943;-79
2023/04/20 10:41:24;;;;;;;;;;;;;;;;;;4347315;32;19943;-79
2023/04/20 10:43:49;;;;;;;;;;;;;;;;;;4360148;33;19981;-79
2023/04/20 10:46:14;;;;;;;;;;;;;;;;;;4358072;32;20378;-79
2023/04/20 10:48:39;;;;;;;;;;;;;;;;;;4347162;33;20022;-79
2023/04/20 10:51:05;;;;;;;;;;;;;;;;;;4357411;33;19954;-81
2023/04/20 10:53:30;;;;;;;;;;;;;;;;;;4345513;33;19996;-81
2023/04/20 10:55:55;;;;;;;;;;;;;;;;;;4346994;33;19954;-80
2023/04/20 10:58:20;;;;;;;;;;;;;;;;;;4345423;33;19992;-81
2023/04/20 11:00:45;;;;;;;;;;;;;;;;;;4347235;33;19994;-79
2023/04/20 11:03:10;;;;;;;;;;;;;;;;;;4348292;33;19986;-79
2023/04/20 11:05:36;;;;;;;;;;;;;;;;;;4346163;33;20338;-80
2023/04/20 11:08:01;;;;;;;;;;;;;;;;;;4348548;33;19969;-80
2023/04/20 11:10:26;;;;;;;;;;;;;;;;;;4349438;33;20360;-82
2023/04/20 11:12:52;;;;;;;;;;;;;;;;;;4348525;33;20370;-81
2023/04/20 11:15:17;;;;;;;;;;;;;;;;;;4346438;33;19934;-79
2023/04/20 11:17:42;;;;;;;;;;;;;;;;;;4356933;33;19950;-79
2023/04/20 11:20:15;;;;;;;;;;;;;;;;;;4359349;33;19929;-80
2023/04/20 11:22:40;;;;;;;;;;;;;;;;;;4360542;33;19962;-78
2023/04/20 11:25:06;;;;;;;;;;;;;;;;;;4360060;33;19934;-78
2023/04/20 11:27:31;;;;;;;;;;;;;;;;;;4359587;33;19935;-80
2023/04/20 11:29:57;;;;;;;;;;;;;;;;;;4357986;33;19947;-81
2023/04/20 11:32:22;;;;;;;;;;;;;;;;;;4354300;33;19965;-79
2023/04/20 11:34:47;;;;;;;;;;;;;;;;;;4350475;33;19943;-78
2023/04/20 11:37:12;;;;;;;;;;;;;;;;;;4356542;33;19965;-79
2023/04/20 11:39:37;;;;;;;;;;;;;;;;;;4357852;33;19939;-79
2023/04/20 11:42:02;;;;;;;;;;;;;;;;;;4360769;33;19954;-78
2023/04/20 11:44:27;;;;;;;;;;;;;;;;;;4359752;33;19938;-80
2023/04/20 11:46:53;;;;;;;;;;;;;;;;;;4358510;33;19951;-79
2023/04/20 11:49:18;;;;;;;;;;;;;;;;;;4360129;33;19935;-79
2023/04/20 11:51:45;;;;;;;;;;;;;;;;;;4359541;33;19972;-79
2023/04/20 11:54:10;;;;;;;;;;;;;;;;;;4355877;33;20011;-79
2023/04/20 11:56:36;;;;;;;;;;;;;;;;;;4350021;33;19947;-79
2023/04/20 11:59:01;;;;;;;;;;;;;;;;;;4349249;33;20210;-79
2023/04/20 12:01:26;;;;;;;;;;;;;;;;;;4349837;33;20253;-78
2023/04/20 12:03:51;;;;;;;;;;;;;;;;;;4348641;33;19931;-79
2023/04/20 12:06:16;;;;;;;;;;;;;;;;;;4349039;33;19953;-77
2023/04/20 12:08:42;;;;;;;;;;;;;;;;;;4349082;33;19950;-79
2023/04/20 12:11:07;;;;;;;;;;;;;;;;;;4353898;32;19931;-77
2023/04/20 12:13:32;;;;;;;;;;;;;;;;;;4357572;33;19935;-78
2023/04/20 12:15:57;;;;;;;;;;;;;;;;;;4359147;33;19942;-80
2023/04/20 12:18:23;;;;;;;;;;;;;;;;;;4359709;33;19946;-79
2023/04/20 12:20:49;;;;;;;;;;;;;;;;;;4361271;33;19974;-78
2023/04/20 12:23:14;;;;;;;;;;;;;;;;;;4359289;33;19931;-79
2023/04/20 12:25:39;;;;;;;;;;;;;;;;;;4355073;33;19982;-79
2023/04/20 12:28:06;;;;;;;;;;;;;;;;;;4352755;33;19943;-80
2023/04/20 12:30:31;;;;;;;;;;;;;;;;;;4350480;33;19977;-80
2023/04/20 12:32:56;;;;;;;;;;;;;;;;;;4349900;33;19939;-79
2023/04/20 12:35:21;;;;;;;;;;;;;;;;;;4352399;33;19942;-79
2023/04/20 12:37:46;;;;;;;;;;;;;;;;;;4353164;33;19969;-78
2023/04/20 12:40:11;;;;;;;;;;;;;;;;;;4349515;33;19966;-79
2023/04/20 12:42:36;;;;;;;;;;;;;;;;;;4348617;33;19943;-80
2023/04/20 12:45:02;;;;;;;;;;;;;;;;;;4347850;33;19981;-80
2023/04/20 12:47:27;;;;;;;;;;;;;;;;;;4349796;33;19934;-79
2023/04/20 12:49:53;;;;;;;;;;;;;;;;;;4351129;33;19969;-80
2023/04/20 12:52:18;;;;;;;;;;;;;;;;;;4348598;33;19943;-79
2023/04/20 12:54:43;;;;;;;;;;;;;;;;;;4348671;33;19946;-81
2023/04/20 12:57:08;;;;;;;;;;;;;;;;;;4349740;33;19973;-80
2023/04/20 12:59:33;;;;;;;;;;;;;;;;;;4349641;33;19939;-79
2023/04/20 13:01:59;;;;;;;;;;;;;;;;;;4349623;33;19985;-81
2023/04/20 13:04:24;;;;;;;;;;;;;;;;;;4349781;33;20350;-80
2023/04/20 13:06:49;;;;;;;;;;;;;;;;;;4350536;33;19974;-80
2023/04/20 13:09:14;;;;;;;;;;;;;;;;;;4348957;33;19950;-80
2023/04/20 13:11:40;;;;;;;;;;;;;;;;;;4348615;33;19977;-81
2023/04/20 13:14:05;;;;;;;;;;;;;;;;;;4350546;33;19939;-80
2023/04/20 13:16:39;;;;;;;;;;;;;;;;;;4355609;33;19974;-79
2023/04/20 13:19:04;;;;;;;;;;;;;;;;;;4354427;33;19939;-80
2023/04/20 13:21:29;;;;;;;;;;;;;;;;;;4354483;33;19945;-81
2023/04/20 13:23:54;;;;;;;;;;;;;;;;;;4349829;33;19992;-81
2023/04/20 13:26:19;;;;;;;;;;;;;;;;;;4348520;33;19970;-79
2023/04/20 13:28:44;;;;;;;;;;;;;;;;;;4348293;33;20354;-79
2023/04/20 13:31:10;;;;;;;;;;;;;;;;;;4348390;33;20028;-80
2023/04/20 13:33:35;;;;;;;;;;;;;;;;;;4348367;33;19967;-80
2023/04/20 13:36:00;;;;;;;;;;;;;;;;;;4348499;33;19953;-80
2023/04/20 13:38:25;;;;;;;;;;;;;;;;;;4348771;33;20268;-79
2023/04/20 13:40:50;;;;;;;;;;;;;;;;;;4347239;33;20364;-80
2023/04/20 13:43:16;;;;;;;;;;;;;;;;;;4348806;33;19986;-81
2023/04/20 13:45:41;;;;;;;;;;;;;;;;;;4348302;33;19943;-79
2023/04/20 13:48:06;;;;;;;;;;;;;;;;;;4347185;33;19935;-79
2023/04/20 13:50:31;;;;;;;;;;;;;;;;;;4347144;33;19969;-79
2023/04/20 13:52:56;;;;;;;;;;;;;;;;;;4348001;33;20337;-81
2023/04/20 13:55:21;;;;;;;;;;;;;;;;;;4347148;33;19947;-79
2023/04/20 13:57:47;;;;;;;;;;;;;;;;;;4347469;33;19931;-79
2023/04/20 14:00:12;;;;;;;;;;;;;;;;;;4347576;33;19935;-80
2023/04/20 14:02:37;;;;;;;;;;;;;;;;;;4345113;33;19950;-80
2023/04/20 14:05:02;;;;;;;;;;;;;;;;;;4347449;33;19935;-79
2023/04/20 14:07:28;;;;;;;;;;;;;;;;;;4353209;33;19934;-80
2023/04/20 14:09:55;;;;;;;;;;;;;;;;;;4348410;33;19950;-81
2023/04/20 14:12:20;;;;;;;;;;;;;;;;;;4347038;33;19990;-79
2023/04/20 14:14:45;;;;;;;;;;;;;;;;;;4346601;33;19950;-78
2023/04/20 14:17:10;;;;;;;;;;;;;;;;;;4346839;33;19939;-78
2023/04/20 14:19:35;;;;;;;;;;;;;;;;;;4346501;33;19939;-79
2023/04/20 14:22:00;;;;;;;;;;;;;;;;;;4346187;33;20012;-80
2023/04/20 14:24:26;;;;;;;;;;;;;;;;;;4348568;33;19939;-79
2023/04/20 14:26:51;;;;;;;;;;;;;;;;;;4347305;32;20346;-78
2023/04/20 14:29:16;;;;;;;;;;;;;;;;;;4355253;33;19935;-79
2023/04/20 14:31:41;;;;;;;;;;;;;;;;;;4350562;33;19965;-79
2023/04/20 14:34:08;;;;;;;;;;;;;;;;;;4347566;33;20011;-80
2023/04/20 14:36:33;;;;;;;;;;;;;;;;;;4347961;33;19962;-80
2023/04/20 14:38:58;;;;;;;;;;;;;;;;;;4347977;33;19934;-80
2023/04/20 14:41:23;;;;;;;;;;;;;;;;;;4348032;33;19942;-79
2023/04/20 14:43:48;;;;;;;;;;;;;;;;;;4346957;33;19935;-80
2023/04/20 14:46:13;;;;;;;;;;;;;;;;;;4348832;33;19935;-79
2023/04/20 14:48:38;;;;;;;;;;;;;;;;;;4347696;33;19973;-80
2023/04/20 14:51:04;;;;;;;;;;;;;;;;;;4347983;33;19938;-80
2023/04/20 14:53:29;;;;;;;;;;;;;;;;;;4348412;33;20503;-80
2023/04/20 14:55:54;;;;;;;;;;;;;;;;;;4348855;33;19934;-79
2023/04/20 14:58:19;;;;;;;;;;;;;;;;;;4349617;33;19977;-79
2023/04/20 15:00:45;;;;;;;;;;;;;;;;;;4350486;33;19947;-78
2023/04/20 15:03:10;;;;;;;;;;;;;;;;;;4348547;33;19971;-80
2023/04/20 15:05:35;;;;;;;;;;;;;;;;;;4349256;33;19934;-80
2023/04/20 15:08:00;;;;;;;;;;;;;;;;;;4350769;33;20015;-80
2023/04/20 15:10:25;;;;;;;;;;;;;;;;;;4351095;33;19940;-80
2023/04/20 15:12:50;;;;;;;;;;;;;;;;;;4356149;33;19930;-80
2023/04/20 15:15:16;;;;;;;;;;;;;;;;;;4362018;33;19934;-81
2023/04/20 15:17:41;;;;;;;;;;;;;;;;;;4359872;33;20040;-81
2023/04/20 15:20:06;;;;;;;;;;;;;;;;;;4353137;33;19951;-78
2023/04/20 15:22:31;;;;;;;;;;;;;;;;;;4350795;33;20280;-80
2023/04/20 15:24:56;;;;;;;;;;;;;;;;;;4353225;33;20297;-79
2023/04/20 15:27:21;;;;;;;;;;;;;;;;;;4352502;33;19947;-78
2023/04/20 15:29:46;;;;;;;;;;;;;;;;;;4354165;33;20290;-80
2023/04/20 15:32:11;;;;;;;;;;;;;;;;;;4353679;33;19949;-79
2023/04/20 15:34:36;;;;;;;;;;;;;;;;;;4353435;33;20328;-80
2023/04/20 15:37:02;;;;;;;;;;;;;;;;;;4354933;33;19934;-79
2023/04/20 15:39:27;;;;;;;;;;;;;;;;;;4353058;33;19939;-80
2023/04/20 15:41:52;;;;;;;;;;;;;;;;;;4352439;33;19934;-81
2023/04/20 15:44:17;;;;;;;;;;;;;;;;;;4350112;33;19939;-80
2023/04/20 15:46:42;;;;;;;;;;;;;;;;;;4352375;33;19951;-79
2023/04/20 15:49:07;;;;;;;;;;;;;;;;;;4350198;33;19981;-80
2023/04/20 15:51:32;;;;;;;;;;;;;;;;;;4351952;33;19943;-80
2023/04/20 15:53:57;;;;;;;;;;;;;;;;;;4351440;33;19980;-79
2023/04/20 15:56:23;;;;;;;;;;;;;;;;;;4351622;33;20370;-79
2023/04/20 15:58:48;;;;;;;;;;;;;;;;;;4352244;33;20283;-80
2023/04/20 16:01:13;;;;;;;;;;;;;;;;;;4354264;33;19935;-80
2023/04/20 16:03:38;;;;;;;;;;;;;;;;;;4351947;33;19977;-81
2023/04/20 16:06:03;;;;;;;;;;;;;;;;;;4352293;33;19934;-80
2023/04/20 16:08:28;;;;;;;;;;;;;;;;;;4351425;33;19939;-79
2023/04/20 16:10:54;;;;;;;;;;;;;;;;;;4351539;33;19934;-80
2023/04/20 16:13:19;;;;;;;;;;;;;;;;;;4351334;33;20295;-79
2023/04/20 16:15:44;;;;;;;;;;;;;;;;;;4351564;33;19958;-79
2023/04/20 16:18:09;;;;;;;;;;;;;;;;;;4352680;33;19939;-80
2023/04/20 16:20:34;;;;;;;;;;;;;;;;;;4355578;33;19939;-79
2023/04/20 16:22:59;;;;;;;;;;;;;;;;;;4354596;33;20390;-79
2023/04/20 16:25:25;;;;;;;;;;;;;;;;;;4348669;33;19935;-78
2023/04/20 16:27:50;;;;;;;;;;;;;;;;;;4348301;33;20017;-80
2023/04/20 16:30:15;;;;;;;;;;;;;;;;;;4349278;33;19951;-78
2023/04/20 16:32:40;;;;;;;;;;;;;;;;;;4349171;33;19931;-78